createdAt,value
2023-04-08T00:00:58.139Z,35.50
2023-04-08T00:06:02.696Z,37.60
2023-04-08T00:11:05.764Z,43.20
2023-04-08T00:16:08.163Z,54.20
2023-04-08T00:21:10.785Z,53.90
2023-04-08T00:26:13.116Z,49.80
2023-04-08T00:31:16.602Z,44.00
2023-04-08T00:36:19.234Z,49.00
2023-04-08T00:41:21.929Z,45.00
2023-04-08T00:46:24.776Z,41.50
2023-04-08T00:51:39.080Z,39.20
2023-04-08T00:56:43.644Z,37.80
2023-04-08T01:02:06.808Z,33.00
2023-04-08T01:07:47.970Z,32.10
2023-04-08T01:12:56.555Z,27.80
2023-04-08T01:18:00.801Z,31.90
2023-04-08T01:23:18.561Z,29.30
2023-04-08T01:28:23.878Z,30.30
2023-04-08T01:33:29.446Z,30.50
2023-04-08T01:38:34.102Z,28.00
2023-04-08T01:43:39.600Z,24.90
2023-04-08T01:48:42.945Z,19.80
2023-04-08T01:53:45.801Z,15.70
2023-04-08T01:58:54.856Z,19.50
2023-04-08T02:04:00.697Z,23.30
2023-04-08T02:09:04.327Z,24.80
2023-04-08T02:14:06.668Z,27.50
2023-04-08T02:19:18.914Z,21.20
2023-04-08T02:24:22.313Z,21.40
2023-04-08T02:29:26.487Z,21.80
2023-04-08T02:34:30.894Z,20.90
2023-04-08T02:39:33.534Z,21.00
2023-04-08T02:44:36.483Z,20.90
2023-04-08T02:49:38.790Z,23.10
2023-04-08T02:54:41.941Z,23.60
2023-04-08T02:59:44.368Z,26.70
2023-04-08T03:04:50.607Z,26.60
2023-04-08T03:09:55.158Z,29.70
2023-04-08T03:14:58.073Z,25.70
2023-04-08T03:20:01.857Z,27.40
2023-04-08T03:25:04.575Z,30.10
2023-04-08T03:30:09.170Z,28.60
2023-04-08T03:35:11.830Z,26.10
2023-04-08T03:40:14.159Z,25.70
2023-04-08T03:45:17.363Z,24.50
2023-04-08T03:50:26.475Z,29.20
2023-04-08T03:55:29.207Z,29.40
2023-04-08T04:00:33.806Z,29.20
2023-04-08T04:05:38.112Z,30.40
2023-04-08T04:10:41.138Z,26.50
2023-04-08T04:15:43.951Z,25.60
2023-04-08T04:20:46.350Z,24.90
2023-04-08T04:25:49.169Z,24.40
2023-04-08T04:30:51.454Z,25.40
2023-04-08T04:35:54.511Z,23.70
2023-04-08T04:40:59.008Z,24.90
2023-04-08T04:46:02.488Z,23.80
2023-04-08T04:51:04.742Z,25.20
2023-04-08T04:56:08.315Z,25.50
2023-04-08T05:01:10.652Z,24.10
2023-04-08T05:06:14.152Z,20.10
2023-04-08T05:11:18.453Z,22.80
2023-04-08T05:16:21.105Z,24.30
2023-04-08T05:21:24.072Z,21.40
2023-04-08T05:26:28.140Z,24.30
2023-04-08T05:31:30.516Z,26.00
2023-04-08T05:36:33.528Z,23.60
2023-04-08T05:41:35.619Z,24.50
2023-04-08T05:46:38.882Z,21.60
2023-04-08T05:51:41.160Z,21.80
2023-04-08T05:56:46.472Z,22.40
2023-04-08T06:01:48.805Z,25.30
2023-04-08T06:06:51.485Z,20.60
2023-04-08T06:11:54.173Z,22.50
2023-04-08T06:16:57.761Z,20.50
2023-04-08T06:22:00.023Z,21.50
2023-04-08T06:27:03.417Z,22.70
2023-04-08T06:32:06.534Z,22.90
2023-04-08T06:37:09.204Z,23.80
2023-04-08T06:42:11.401Z,19.50
2023-04-08T06:47:21.693Z,22.00
2023-04-08T06:52:24.499Z,19.90
2023-04-08T06:57:30.122Z,18.50
2023-04-08T07:02:33.035Z,17.70
2023-04-08T07:07:36.831Z,20.00
2023-04-08T07:12:39.322Z,19.10
2023-04-08T07:17:42.973Z,17.80
2023-04-08T07:22:45.446Z,18.50
2023-04-08T07:27:48.014Z,18.70
2023-04-08T07:32:50.954Z,16.00
2023-04-08T07:37:53.914Z,18.40
2023-04-08T07:42:56.647Z,16.50
2023-04-08T07:47:59.040Z,18.10
2023-04-08T07:53:01.266Z,19.10
2023-04-08T07:58:03.947Z,16.70
2023-04-08T08:03:07.340Z,15.00
2023-04-08T08:08:14.094Z,15.70
2023-04-08T08:13:25.749Z,11.70
2023-04-08T08:18:40.220Z,11.90
2023-04-08T08:23:42.918Z,15.00
2023-04-08T08:28:45.400Z,11.20
2023-04-08T08:33:48.425Z,11.30
2023-04-08T08:38:55.362Z,11.70
2023-04-08T08:43:57.404Z,12.50
2023-04-08T08:49:13.245Z,9.60
2023-04-08T08:54:16.197Z,9.10
2023-04-08T08:59:18.763Z,13.70
2023-04-08T09:09:51.724Z,11.50
2023-04-08T09:15:11.025Z,11.20
2023-04-08T09:20:16.470Z,11.20
2023-04-08T09:25:29.546Z,11.40
2023-04-08T09:30:38.734Z,11.20
2023-04-08T09:35:44.382Z,10.80
2023-04-08T09:41:41.751Z,10.40
2023-04-08T09:47:45.018Z,11.20
2023-04-08T09:53:34.331Z,12.00
2023-04-08T10:38:20.333Z,13.90
2023-04-08T10:43:24.205Z,15.30
2023-04-08T10:48:26.884Z,12.70
2023-04-08T10:53:31.092Z,13.20
2023-04-08T10:58:34.653Z,10.60
2023-04-08T11:03:37.958Z,11.20
2023-04-08T11:08:40.904Z,10.60
2023-04-08T11:13:52.592Z,10.70
2023-04-08T11:18:56.943Z,9.60
2023-04-08T11:23:59.249Z,9.70
2023-04-08T11:29:02.704Z,10.90
2023-04-08T11:34:04.558Z,10.10
2023-04-08T11:39:08.843Z,10.00
2023-04-08T11:44:11.512Z,8.30
2023-04-08T11:49:13.742Z,9.10
2023-04-08T11:54:27.769Z,10.10
2023-04-08T11:59:30.097Z,9.60
2023-04-08T12:04:32.447Z,9.40
2023-04-08T12:09:35.086Z,11.60
2023-04-08T12:14:37.870Z,14.70
2023-04-08T12:19:41.184Z,13.10
2023-04-08T12:24:43.160Z,14.10
2023-04-08T12:29:46.292Z,17.80
2023-04-08T12:34:48.215Z,15.70
2023-04-08T12:39:50.551Z,18.20
2023-04-08T12:44:53.222Z,14.30
2023-04-08T12:49:55.754Z,13.70
2023-04-08T12:54:57.942Z,13.70
2023-04-08T13:00:00.160Z,13.00
2023-04-08T13:05:02.536Z,14.50
2023-04-08T13:10:07.076Z,15.10
2023-04-08T13:15:10.362Z,17.50
2023-04-08T13:20:12.766Z,15.70
2023-04-08T13:25:14.659Z,18.50
2023-04-08T13:30:16.857Z,18.60
2023-04-08T13:35:19.410Z,20.80
2023-04-08T13:40:22.282Z,15.30
2023-04-08T13:45:25.329Z,15.60
2023-04-08T13:50:27.429Z,17.00
2023-04-08T13:55:29.385Z,17.70
2023-04-08T14:00:32.995Z,17.30
2023-04-08T14:05:34.938Z,16.90
2023-04-08T14:10:39.196Z,17.70
2023-04-08T14:15:42.197Z,22.60
2023-04-08T14:20:45.221Z,25.10
2023-04-08T14:25:47.697Z,25.20
2023-04-08T14:30:51.245Z,21.90
2023-04-08T14:35:53.876Z,22.00
2023-04-08T14:40:56.519Z,27.00
2023-04-08T14:45:58.421Z,26.00
2023-04-08T14:51:00.645Z,29.60
2023-04-08T14:56:02.618Z,33.90
2023-04-08T15:01:05.272Z,28.30
2023-04-08T15:06:08.265Z,24.60
2023-04-08T15:11:10.955Z,28.60
2023-04-08T15:16:13.281Z,31.40
2023-04-08T15:21:16.679Z,32.70
2023-04-08T15:26:18.773Z,31.50
2023-04-08T15:31:21.294Z,32.50
2023-04-08T15:36:23.476Z,26.40
2023-04-08T15:41:26.367Z,24.40
2023-04-08T15:46:28.283Z,24.70
2023-04-08T15:51:30.307Z,27.40
2023-04-08T15:56:33.709Z,30.10
2023-04-08T16:01:36.296Z,28.90
2023-04-08T16:06:38.456Z,27.50
2023-04-08T16:11:41.822Z,28.50
2023-04-08T16:16:43.847Z,30.50
2023-04-08T16:21:46.461Z,36.40
2023-04-08T16:26:48.409Z,36.40
2023-04-08T16:31:53.181Z,61.00
2023-04-08T16:36:56.873Z,40.00
2023-04-08T16:42:01.090Z,36.00
2023-04-08T16:47:03.169Z,34.80
2023-04-08T16:52:06.242Z,37.70
2023-04-08T16:57:08.431Z,34.90
2023-04-08T17:02:12.696Z,44.20
2023-04-08T17:07:16.127Z,35.50
2023-04-08T17:12:18.371Z,45.20
2023-04-08T17:17:21.043Z,45.50
2023-04-08T17:22:23.127Z,44.80
2023-04-08T17:27:25.034Z,52.20
2023-04-08T17:32:30.174Z,50.80
2023-04-08T17:37:32.045Z,47.10
2023-04-08T17:42:33.916Z,50.50
2023-04-08T17:47:36.156Z,49.40
2023-04-08T17:52:38.240Z,48.60
2023-04-08T17:57:40.177Z,54.60
2023-04-08T18:02:42.926Z,53.00
2023-04-08T18:07:45.462Z,43.70
2023-04-08T18:12:48.986Z,45.10
2023-04-08T18:17:51.448Z,46.50
2023-04-08T18:22:53.920Z,48.40
2023-04-08T18:27:55.910Z,44.80
2023-04-08T18:32:57.863Z,50.90
2023-04-08T18:37:59.909Z,44.80
2023-04-08T18:43:05.653Z,52.90
2023-04-08T18:48:09.528Z,52.40
2023-04-08T18:53:12.536Z,51.10
2023-04-08T18:58:14.724Z,44.60
2023-04-08T19:03:17.492Z,40.30
2023-04-08T19:08:19.502Z,43.10
2023-04-08T19:13:23.534Z,38.10
2023-04-08T19:18:26.096Z,48.60
2023-04-08T19:23:28.807Z,39.20
2023-04-08T19:28:32.414Z,42.70
2023-04-08T19:33:34.375Z,43.80
2023-04-08T19:38:36.343Z,49.60
2023-04-08T19:43:38.477Z,52.40
2023-04-08T19:48:40.507Z,50.80
2023-04-08T19:53:43.114Z,55.80
2023-04-08T19:58:45.041Z,53.70
2023-04-08T20:03:50.539Z,51.50
2023-04-08T20:08:53.667Z,55.90
2023-04-08T20:13:56.513Z,52.20
2023-04-08T20:18:58.588Z,51.80
2023-04-08T20:24:01.212Z,53.40
2023-04-08T20:29:03.144Z,49.60
2023-04-08T20:34:05.203Z,47.00
2023-04-08T20:39:10.821Z,51.10
2023-04-08T20:44:13.280Z,47.20
2023-04-08T20:49:18.771Z,57.00
2023-04-08T20:54:21.828Z,73.00
2023-04-08T20:59:23.752Z,53.70
2023-04-08T21:04:25.967Z,54.20
2023-04-08T21:09:28.621Z,49.30
2023-04-08T21:14:38.161Z,51.20
2023-04-08T21:19:40.237Z,50.70
2023-04-08T21:24:43.173Z,59.60
2023-04-08T21:29:45.287Z,55.50
2023-04-08T21:34:56.735Z,55.20
2023-04-08T21:39:58.679Z,55.40
2023-04-08T21:45:02.265Z,62.20
2023-04-08T21:50:08.161Z,82.50
2023-04-08T21:55:30.567Z,87.10
2023-04-08T22:00:32.559Z,80.00
2023-04-08T22:05:36.079Z,83.40
2023-04-08T22:10:38.171Z,70.40
2023-04-08T22:15:40.742Z,61.30
2023-04-08T22:20:43.317Z,57.90
2023-04-08T22:25:51.934Z,53.60
2023-04-08T22:30:55.416Z,42.90
2023-04-08T22:35:57.824Z,53.40
2023-04-08T22:41:00.893Z,58.80
2023-04-08T22:46:03.186Z,61.50
2023-04-08T22:51:05.548Z,53.20
2023-04-08T22:56:07.794Z,45.40
2023-04-08T23:01:18.590Z,40.00
2023-04-08T23:06:20.640Z,38.80
2023-04-08T23:11:42.467Z,44.00
2023-04-08T23:16:45.536Z,41.50
2023-04-08T23:21:47.525Z,37.10
2023-04-08T23:26:50.273Z,37.60
2023-04-08T23:31:54.473Z,38.50
2023-04-08T23:36:56.414Z,41.00
2023-04-08T23:41:58.878Z,43.60
2023-04-08T23:47:02.063Z,44.30
2023-04-08T23:52:06.319Z,37.00
2023-04-08T23:57:08.363Z,46.30
